Time;durP1;ratioP1;P1;durP2;ratioP2;P2;SDS_P1;SDS_P2;PMS_P1;PMS_P2;Temp;Humidity;BMP_temperature;BMP_pressure;BME280_temperature;BME280_humidity;BME280_pressure;Samples;Min_cycle;Max_cycle;Signal;HPM_P1;HPM_P2
2023/07/11 07:51:53;;;;;;;2250.00;999.90;;;;;;;28.26;48.88;96628.66;2083796;28;21036;-59
2023/07/11 07:54:12;;;;;;;2250.00;999.90;;;;;;;28.29;48.69;96629.13;2083675;28;20596;-59
2023/07/11 07:56:31;;;;;;;2250.00;999.90;;;;;;;28.01;49.78;96629.66;2083912;28;20564;-59
2023/07/11 07:59:02;;;;;;;2250.00;999.90;;;;;;;28.56;48.44;96632.25;2104507;27;21102;-59
2023/07/11 08:01:26;;;;;;;2250.00;999.90;;;;;;;28.34;49.13;96625.88;2085719;28;20568;-59
2023/07/11 08:03:54;;;;;;;2250.00;999.90;;;;;;;28.45;48.92;96622.75;2085909;28;20574;-59
2023/07/11 08:06:29;;;;;;;2250.00;999.90;;;;;;;28.40;49.39;96625.16;2106133;27;20547;-60
2023/07/11 08:07:30;;;;;;;2250.00;999.90;;;;;;;28.56;48.75;96623.38;2107326;28;20196;-59
2023/07/11 08:10:03;;;;;;;2250.00;999.90;;;;;;;28.67;49.16;96621.09;2100294;27;21075;-59
2023/07/11 08:11:06;;;;;;;2250.00;999.90;;;;;;;28.84;48.46;96618.22;2084871;27;20289;-60
2023/07/11 08:12:11;;;;;;;2250.00;999.90;;;;;;;29.25;48.05;96617.72;2081228;28;20202;-59
2023/07/11 08:13:12;;;;;;;2250.00;999.90;;;;;;;29.17;48.58;96620.53;2080818;28;20680;-60
2023/07/11 08:14:14;;;;;;;2250.00;999.90;;;;;;;29.02;48.43;96617.84;2083720;28;20199;-60
2023/07/11 08:15:15;;;;;;;2250.00;999.90;;;;;;;28.88;48.56;96619.53;2083872;28;20638;-59
2023/07/11 08:16:18;;;;;;;2266.67;999.90;;;;;;;29.12;48.51;96614.91;2087141;28;20257;-59
2023/07/11 08:17:33;;;;;;;2266.67;999.90;;;;;;;29.28;47.93;96608.50;2088329;28;20440;-60
2023/07/11 08:18:35;;;;;;;2266.67;999.90;;;;;;;29.47;47.94;96615.13;2089061;28;20976;-60
2023/07/11 08:19:36;;;;;;;2266.67;999.90;;;;;;;29.41;48.60;96614.03;2088937;28;20447;-60
2023/07/11 08:22:20;;;;;;;2266.67;999.90;;;;;;;29.13;48.66;96613.88;2082489;28;20561;-59
2023/07/11 08:23:22;;;;;;;2266.67;999.90;;;;;;;29.21;48.85;96600.31;2083114;28;20463;-60
2023/07/11 08:24:24;;;;;;;2266.67;999.90;;;;;;;29.34;49.06;96599.69;2079131;28;20850;-59
2023/07/11 08:25:25;;;;;;;2266.67;999.90;;;;;;;29.31;49.47;96603.56;2077660;28;20942;-60
2023/07/11 08:26:27;;;;;;;2266.67;999.90;;;;;;;29.41;49.49;96613.22;2074330;28;20433;-59
2023/07/11 08:27:28;;;;;;;2266.67;999.90;;;;;;;29.47;49.25;96613.28;2074596;28;20485;-60
2023/07/11 08:28:30;;;;;;;2266.67;999.90;;;;;;;29.69;48.89;96610.63;2074571;28;20841;-59
2023/07/11 08:29:31;;;;;;;2266.67;999.90;;;;;;;29.67;48.42;96601.09;2074267;28;20479;-60
2023/07/11 08:30:37;;;;;;;2266.67;999.90;;;;;;;29.71;48.90;96602.38;2071923;28;20450;-59
2023/07/11 08:31:39;;;;;;;2266.67;999.90;;;;;;;29.62;48.90;96602.50;2072975;28;20440;-59
2023/07/11 08:32:41;;;;;;;912.00;373.30;;;;;;;29.74;49.42;96604.69;2074782;28;20878;-59
2023/07/11 08:33:45;;;;;;;2266.67;999.90;;;;;;;29.49;49.47;96599.66;2074844;28;20439;-59
2023/07/11 08:37:35;;;;;;;2266.67;999.90;;;;;;;29.47;49.68;96602.53;2084649;28;20567;-59
2023/07/11 08:38:36;;;;;;;2266.67;999.90;;;;;;;29.42;49.67;96604.97;2080674;28;20434;-59
2023/07/11 08:39:38;;;;;;;2266.67;999.90;;;;;;;29.40;49.63;96603.50;2080456;28;20434;-59
2023/07/11 08:40:43;;;;;;;2266.67;999.90;;;;;;;29.55;49.94;96595.38;2079674;28;21190;-59
2023/07/11 08:41:51;;;;;;;2266.67;999.90;;;;;;;29.64;49.96;96599.63;2079003;28;20433;-59
2023/07/11 08:42:53;;;;;;;2266.67;999.90;;;;;;;29.93;49.45;96587.94;2079272;28;20455;-59
2023/07/11 08:43:59;;;;;;;990.97;378.70;;;;;;;30.13;49.45;96584.59;2080945;28;21447;-59
2023/07/11 08:45:13;;;;;;;1933.57;892.30;;;;;;;30.19;49.88;96583.00;2081766;28;20443;-60
2023/07/11 08:46:17;;;;;;;2266.67;999.90;;;;;;;30.38;49.15;96593.06;2081770;28;21143;-59
2023/07/11 08:47:31;;;;;;;2266.67;999.90;;;;;;;30.43;47.96;96587.94;2082885;28;20854;-60
2023/07/11 08:48:41;;;;;;;2266.67;999.90;;;;;;;29.89;49.58;96586.66;2079157;28;20434;-59
2023/07/11 08:49:50;;;;;;;2266.67;999.90;;;;;;;30.09;48.68;96584.16;2079835;28;20485;-59
2023/07/11 08:51:01;;;;;;;2266.67;999.90;;;;;;;30.39;48.42;96586.66;2080342;28;20491;-59
2023/07/11 08:52:04;;;;;;;2266.67;999.90;;;;;;;30.49;48.04;96583.69;2081752;28;20482;-59
2023/07/11 08:53:12;;;;;;;2266.67;999.90;;;;;;;30.30;48.08;96571.69;2078938;28;20429;-60
2023/07/11 08:54:37;;;;;;;2266.67;999.90;;;;;;;30.51;47.49;96578.09;2079773;28;20487;-60
2023/07/11 08:55:47;;;;;;;2266.67;999.90;;;;;;;30.53;47.91;96576.03;2080138;28;20465;-60
2023/07/11 08:56:49;;;;;;;2266.67;999.90;;;;;;;30.33;47.52;96576.69;2079446;28;20429;-59
2023/07/11 08:58:06;;;;;;;2266.67;999.90;;;;;;;30.35;47.82;96571.94;2079689;28;20429;-59
2023/07/11 08:59:14;;;;;;;2266.67;999.90;;;;;;;30.54;47.34;96572.31;2079273;28;20433;-59
2023/07/11 09:00:18;;;;;;;2266.67;999.90;;;;;;;30.51;47.21;96561.94;2078182;28;20432;-59
2023/07/11 09:01:34;;;;;;;2266.67;999.90;;;;;;;31.29;46.59;96574.38;2078922;28;20442;-60
2023/07/11 09:02:51;;;;;;;2266.67;999.90;;;;;;;31.45;45.82;96573.19;2079364;28;20432;-60
2023/07/11 09:03:55;;;;;;;2266.67;999.90;;;;;;;31.10;46.03;96566.03;2078588;28;20435;-59
2023/07/11 09:04:58;;;;;;;2266.67;999.90;;;;;;;30.72;46.63;96569.94;2086263;28;20429;-59
2023/07/11 09:06:03;;;;;;;2266.67;999.90;;;;;;;30.40;46.63;96569.50;2087344;28;20472;-60
2023/07/11 09:07:25;;;;;;;2266.67;999.90;;;;;;;30.25;46.57;96572.28;2081429;28;21062;-59
2023/07/11 09:08:28;;;;;;;2266.67;999.90;;;;;;;30.45;46.22;96572.44;2079080;28;20429;-60
2023/07/11 09:09:30;;;;;;;2266.67;999.90;;;;;;;30.85;45.77;96573.75;2079685;28;20427;-59
2023/07/11 09:10:42;;;;;;;2266.67;999.90;;;;;;;30.92;45.77;96566.53;2080378;28;20437;-59
2023/07/11 09:12:04;;;;;;;2266.67;999.90;;;;;;;31.26;45.57;96564.81;2081517;28;20432;-59
2023/07/11 09:13:44;;;;;;;2266.67;999.90;;;;;;;31.13;45.45;96559.41;2078705;28;20430;-59
2023/07/11 09:15:04;;;;;;;2266.67;999.90;;;;;;;31.36;44.98;96559.91;2079078;28;20430;-60
2023/07/11 09:16:21;;;;;;;2266.67;999.90;;;;;;;31.01;46.04;96556.41;2079617;28;20461;-59
2023/07/11 09:17:29;;;;;;;2266.67;999.90;;;;;;;31.36;45.52;96562.59;2080228;28;20510;-60
2023/07/11 09:18:43;;;;;;;2266.67;999.90;;;;;;;31.59;44.75;96556.00;2080685;28;20442;-60
2023/07/11 09:20:04;;;;;;;2266.67;999.90;;;;;;;31.67;44.90;96565.81;2081966;28;20437;-59
2023/07/11 09:21:20;;;;;;;2266.67;999.90;;;;;;;31.87;44.75;96555.06;2077957;28;20477;-59
2023/07/11 09:22:51;;;;;;;2266.67;999.90;;;;;;;31.96;44.16;96553.84;2079392;28;20882;-60
2023/07/11 09:23:53;;;;;;;2266.67;999.90;;;;;;;32.08;44.35;96554.03;2069109;28;20482;-59
2023/07/11 09:25:16;;;;;;;2266.67;999.90;;;;;;;32.30;43.67;96553.84;2068439;28;20431;-59
2023/07/11 09:26:44;;;;;;;2266.67;999.90;;;;;;;31.68;44.32;96549.44;2078141;28;20480;-59
2023/07/11 09:27:51;;;;;;;2266.67;999.90;;;;;;;31.64;44.96;96550.03;2082535;28;20422;-59
2023/07/11 09:29:00;;;;;;;2266.67;999.90;;;;;;;31.77;44.66;96538.44;2079779;28;20848;-59
2023/07/11 09:30:15;;;;;;;2266.67;999.90;;;;;;;31.65;44.58;96549.00;2078348;28;20513;-59
2023/07/11 09:31:20;;;;;;;2266.67;999.90;;;;;;;31.83;44.60;96541.13;2078061;28;20450;-59
2023/07/11 09:32:32;;;;;;;2266.67;999.90;;;;;;;32.20;44.55;96538.91;2078086;28;20427;-59
2023/07/11 09:33:38;;;;;;;2266.67;999.90;;;;;;;31.84;44.19;96541.97;2077397;28;21142;-59
2023/07/11 09:34:47;;;;;;;2266.67;999.90;;;;;;;31.68;44.33;96540.50;2078270;28;20431;-59
2023/07/11 09:35:50;;;;;;;2266.67;999.90;;;;;;;31.79;44.26;96542.59;2078732;28;20459;-59
2023/07/11 09:36:55;;;;;;;2266.67;999.90;;;;;;;31.49;44.74;96542.09;2078725;28;20509;-60
2023/07/11 09:38:07;;;;;;;2266.67;999.90;;;;;;;31.85;44.03;96544.47;2078509;28;20502;-59
2023/07/11 09:39:38;;;;;;;2266.67;999.90;;;;;;;31.99;44.06;96537.22;2078581;28;20431;-60
2023/07/11 09:40:46;;;;;;;2266.67;999.90;;;;;;;32.63;43.45;96532.19;2078197;28;20509;-59
2023/07/11 09:41:58;;;;;;;2266.67;999.90;;;;;;;33.01;42.98;96531.50;2078554;28;20423;-59
2023/07/11 09:43:02;;;;;;;2266.67;999.90;;;;;;;33.03;42.40;96536.69;2079253;28;20770;-59
2023/07/11 09:44:09;;;;;;;1860.47;999.90;;;;;;;32.51;42.60;96532.00;2082821;28;20432;-59
2023/07/11 09:45:13;;;;;;;1096.83;984.47;;;;;;;32.04;43.26;96537.41;2077657;28;20509;-59
2023/07/11 09:46:19;;;;;;;989.90;890.53;;;;;;;31.99;43.20;96534.50;2077162;28;20440;-60
2023/07/11 09:47:21;;;;;;;1172.07;999.90;;;;;;;31.84;43.63;96533.88;2080910;28;20427;-60
2023/07/11 09:48:27;;;;;;;2266.67;999.90;;;;;;;31.74;44.06;96545.91;2078157;28;20591;-60
2023/07/11 09:49:30;;;;;;;877.23;792.37;;;;;;;31.81;43.79;96545.91;2072083;28;20485;-59
2023/07/11 09:50:59;;;;;;;2266.67;999.90;;;;;;;32.49;43.33;96544.06;2072505;28;20428;-60
2023/07/11 09:52:05;;;;;;;1199.57;999.90;;;;;;;32.50;42.71;96540.34;2073188;28;20432;-60
2023/07/11 09:53:15;;;;;;;1173.27;999.90;;;;;;;32.46;42.85;96541.81;2073057;28;20887;-59
2023/07/11 09:54:19;;;;;;;1841.83;999.90;;;;;;;32.68;42.67;96540.50;2074675;28;20478;-60
2023/07/11 09:55:25;;;;;;;2266.67;999.90;;;;;;;32.61;43.49;96533.44;2077668;28;20466;-59
2023/07/11 09:56:27;;;;;;;1160.90;999.90;;;;;;;32.48;42.88;96537.00;2072031;28;20502;-60
2023/07/11 09:57:31;;;;;;;1045.90;944.17;;;;;;;32.61;42.72;96534.28;2073895;28;20428;-59
2023/07/11 09:58:33;;;;;;;1021.17;924.17;;;;;;;32.24;43.27;96533.94;2074004;28;20530;-59
2023/07/11 09:59:36;;;;;;;777.83;706.27;;;;;;;32.30;43.13;96543.88;2074888;28;20415;-59
2023/07/11 10:00:50;;;;;;;1149.90;999.90;;;;;;;32.79;42.38;96543.63;2074430;28;20534;-60
2023/07/11 10:01:55;;;;;;;1174.37;999.90;;;;;;;33.85;41.31;96539.63;2073169;28;20439;-59
2023/07/11 10:02:59;;;;;;;1136.50;999.90;;;;;;;33.77;40.89;96539.84;2073309;28;20554;-59
2023/07/11 10:04:04;;;;;;;1113.33;997.47;;;;;;;33.45;41.56;96523.63;2072740;28;20527;-60
2023/07/11 10:05:14;;;;;;;941.93;852.87;;;;;;;33.53;41.32;96530.66;2071748;28;20502;-60
2023/07/11 10:06:29;;;;;;;1047.17;946.80;;;;;;;33.73;41.58;96535.13;2073748;28;20476;-59
2023/07/11 10:08:01;;;;;;;1119.23;996.73;;;;;;;33.80;41.05;96535.88;2074265;28;20439;-60
2023/07/11 10:09:15;;;;;;;1036.63;942.07;;;;;;;33.74;41.29;96531.34;2074147;28;20429;-59
2023/07/11 10:10:16;;;;;;;1033.43;941.40;;;;;;;33.94;40.57;96528.53;2074836;28;20433;-60
2023/07/11 10:11:18;;;;;;;1063.60;965.57;;;;;;;33.81;40.98;96529.44;2076840;28;20486;-59
2023/07/11 10:12:23;;;;;;;940.13;861.27;;;;;;;33.52;41.26;96526.28;2075663;28;20938;-59
2023/07/11 10:13:24;;;;;;;1064.93;968.47;;;;;;;33.64;41.31;96529.94;2071047;28;20479;-60
2023/07/11 10:14:44;;;;;;;1077.43;982.27;;;;;;;34.05;40.64;96519.69;2074341;28;21034;-60
2023/07/11 10:15:51;;;;;;;990.57;900.17;;;;;;;34.00;40.60;96523.06;2071957;28;20478;-60
2023/07/11 10:16:54;;;;;;;967.77;880.00;;;;;;;34.16;40.77;96523.56;2072742;28;20767;-59
2023/07/11 10:17:56;;;;;;;1044.17;948.23;;;;;;;34.24;40.81;96520.56;2074644;28;20960;-60
2023/07/11 10:18:58;;;;;;;1037.13;932.90;;;;;;;34.07;40.59;96520.31;2075988;28;20858;-59
2023/07/11 10:20:02;;;;;;;922.13;842.63;;;;;;;33.87;40.95;96520.47;2076027;28;20779;-59
2023/07/11 10:21:23;;;;;;;1001.00;905.37;;;;;;;33.58;41.65;96522.69;2075997;28;20457;-59
2023/07/11 10:22:37;;;;;;;943.13;858.10;;;;;;;33.18;42.29;96517.50;2073109;28;20489;-59
2023/07/11 10:23:42;;;;;;;1092.63;989.50;;;;;;;33.05;42.79;96516.50;2073686;28;20426;-60
2023/07/11 10:24:44;;;;;;;1138.77;999.90;;;;;;;33.21;42.34;96517.88;2074711;28;20914;-60
2023/07/11 10:25:45;;;;;;;1074.13;975.63;;;;;;;33.32;41.99;96510.16;2071252;28;20449;-59
2023/07/11 10:26:53;;;;;;;1046.90;950.40;;;;;;;33.49;41.70;96524.00;2071813;28;20422;-59
2023/07/11 10:28:27;;;;;;;958.23;873.40;;;;;;;34.02;41.23;96518.25;2072197;28;20434;-60
2023/07/11 10:29:35;;;;;;;1135.33;996.83;;;;;;;33.43;41.84;96519.47;2072821;28;20846;-60
2023/07/11 10:30:38;;;;;;;1134.00;999.90;;;;;;;33.05;42.97;96513.81;2074807;28;20486;-59
2023/07/11 10:31:47;;;;;;;1063.60;960.77;;;;;;;32.63;43.57;96510.56;2074524;28;21131;-59
2023/07/11 10:32:56;;;;;;;1090.00;985.77;;;;;;;32.57;44.08;96508.75;2073301;28;20573;-59
2023/07/11 10:34:21;;;;;;;1157.17;999.90;;;;;;;31.90;44.40;96515.00;2073452;28;20485;-59
2023/07/11 10:35:25;;;;;;;1091.80;988.33;;;;;;;31.88;45.23;96511.69;2073635;28;20436;-59
2023/07/11 10:36:35;;;;;;;1219.40;999.90;;;;;;;31.82;45.02;96501.72;2077754;28;20430;-59
2023/07/11 10:37:41;;;;;;;1180.13;999.90;;;;;;;32.03;44.81;96506.06;2075637;28;20428;-59
2023/07/11 10:38:51;;;;;;;1243.07;999.90;;;;;;;32.83;43.84;96507.03;2072897;28;20842;-60
2023/07/11 10:39:59;;;;;;;1232.27;999.90;;;;;;;33.57;42.98;96502.09;2077052;28;20432;-59
2023/07/11 10:41:03;;;;;;;1245.83;999.90;;;;;;;34.13;42.22;96497.75;2072246;28;20992;-60
2023/07/11 10:42:30;;;;;;;1126.73;999.90;;;;;;;33.76;41.91;96497.59;2071112;28;20952;-59
2023/07/11 10:43:36;;;;;;;1155.83;999.90;;;;;;;33.92;41.74;96493.53;2074169;28;20516;-60
2023/07/11 10:44:48;;;;;;;1083.53;981.37;;;;;;;33.53;42.12;96495.47;2075290;28;20524;-59
2023/07/11 10:45:54;;;;;;;1139.97;999.90;;;;;;;33.01;43.37;96490.94;2073931;28;20496;-59
2023/07/11 10:46:56;;;;;;;1040.90;945.77;;;;;;;33.14;43.06;96486.50;2076219;28;20917;-60
2023/07/11 10:48:11;;;;;;;1050.87;956.30;;;;;;;33.72;42.25;96485.53;2076831;28;20896;-59
2023/07/11 10:49:17;;;;;;;1090.63;989.60;;;;;;;33.90;42.31;96489.41;2071674;28;20441;-59
2023/07/11 10:50:44;;;;;;;1132.50;999.90;;;;;;;32.76;43.38;96482.72;2072003;28;20442;-60
2023/07/11 10:51:54;;;;;;;1052.37;957.43;;;;;;;32.18;44.32;96486.97;2070282;28;20529;-59
2023/07/11 10:53:00;;;;;;;1135.87;999.90;;;;;;;32.77;43.91;96483.53;2072690;28;20426;-59
2023/07/11 10:54:13;;;;;;;1210.77;999.90;;;;;;;33.24;43.25;96488.75;2072082;28;20905;-60
2023/07/11 10:55:18;;;;;;;1129.53;999.90;;;;;;;33.84;42.39;96493.84;2073059;28;20471;-60
2023/07/11 10:56:43;;;;;;;1047.60;954.60;;;;;;;34.05;41.71;96487.19;2073179;28;20422;-59
2023/07/11 10:57:50;;;;;;;1092.50;991.40;;;;;;;34.43;40.84;96488.94;2070702;28;20517;-59
2023/07/11 10:58:56;;;;;;;1160.50;999.90;;;;;;;34.87;40.74;96488.06;2073011;28;20492;-59
2023/07/11 10:59:58;;;;;;;945.17;860.33;;;;;;;35.21;40.41;96483.06;2073582;28;20975;-60
2023/07/11 11:01:07;;;;;;;773.20;700.50;;;;;;;34.44;40.92;96474.34;2073347;28;20467;-60
2023/07/11 11:02:31;;;;;;;873.57;787.80;;;;;;;34.64;40.97;96476.00;2073885;28;20970;-60
2023/07/11 11:03:41;;;;;;;945.27;854.47;;;;;;;35.86;39.23;96478.78;2073648;28;20488;-60
2023/07/11 11:05:14;;;;;;;1188.47;999.90;;;;;;;35.96;38.98;96479.91;2072937;28;20835;-59
2023/07/11 11:06:43;;;;;;;1086.10;987.03;;;;;;;34.74;40.91;96470.91;2073538;28;20519;-59
2023/07/11 11:07:50;;;;;;;1056.53;959.63;;;;;;;35.15;40.30;96473.97;2072699;28;20428;-60
2023/07/11 11:08:57;;;;;;;1121.33;999.37;;;;;;;34.58;40.78;96477.75;2072421;28;20432;-59
2023/07/11 11:10:01;;;;;;;1196.90;999.90;;;;;;;34.14;41.82;96468.78;2072199;28;20547;-59
2023/07/11 11:11:21;;;;;;;1229.50;999.90;;;;;;;33.82;42.04;96458.84;2076164;28;20494;-60
2023/07/11 11:12:41;;;;;;;1284.90;999.90;;;;;;;33.79;42.08;96453.00;2072139;28;20925;-59
2023/07/11 11:14:00;;;;;;;1275.43;999.90;;;;;;;34.28;41.44;96461.34;2072189;28;20436;-60
2023/07/11 11:15:45;;;;;;;1162.47;999.90;;;;;;;35.10;40.45;96457.56;2072248;28;20435;-60
2023/07/11 11:17:02;;;;;;;1078.23;980.70;;;;;;;34.85;40.58;96454.91;2072100;28;20526;-59
2023/07/11 11:18:30;;;;;;;1134.33;999.90;;;;;;;34.17;41.74;96449.38;2072143;28;20432;-60
2023/07/11 11:20:11;;;;;;;1112.97;997.03;;;;;;;32.39;43.93;96437.28;2074199;28;20416;-59
2023/07/11 11:21:26;;;;;;;1043.77;939.60;;;;;;;32.48;44.21;96437.03;2073510;28;21058;-59
2023/07/11 11:22:59;;;;;;;1053.27;946.60;;;;;;;32.80;44.08;96434.44;2071707;28;20517;-59
2023/07/11 11:24:06;;;;;;;984.20;884.53;;;;;;;33.58;43.03;96438.00;2072652;28;20438;-59
2023/07/11 11:25:45;;;;;;;1109.23;988.30;;;;;;;33.31;42.58;96435.47;2071578;28;20553;-59
2023/07/11 11:27:04;;;;;;;982.63;888.30;;;;;;;33.04;43.56;96428.31;2073868;28;20446;-59
2023/07/11 11:28:19;;;;;;;860.13;777.00;;;;;;;32.74;43.58;96424.53;2071901;28;20428;-59
2023/07/11 11:29:58;;;;;;;1032.27;931.53;;;;;;;32.84;43.69;96433.00;2072644;28;20433;-59
2023/07/11 11:31:09;;;;;;;1104.10;986.77;;;;;;;33.54;42.91;96426.78;2079757;28;20461;-59
2023/07/11 11:32:31;;;;;;;1142.87;999.90;;;;;;;33.25;43.05;96429.00;2078472;28;20432;-59
2023/07/11 11:33:53;;;;;;;1054.90;954.17;;;;;;;33.15;43.58;96420.56;2072232;28;20872;-59
2023/07/11 11:35:13;;;;;;;1126.80;999.90;;;;;;;33.63;42.54;96411.09;2071885;28;20515;-60
2023/07/11 11:36:30;;;;;;;1100.90;993.50;;;;;;;33.68;42.56;96406.66;2072021;28;20441;-60
2023/07/11 11:37:54;;;;;;;1082.77;977.33;;;;;;;33.59;42.62;96410.69;2072283;28;20504;-60
2023/07/11 11:39:34;;;;;;;1022.53;913.87;;;;;;;33.22;42.89;96415.94;2072062;28;20527;-60
2023/07/11 11:40:43;;;;;;;902.83;814.07;;;;;;;34.39;42.31;96414.59;2060843;28;20462;-60
2023/07/11 11:41:58;;;;;;;772.27;700.97;;;;;;;34.87;40.65;96414.84;2069004;28;20435;-60
2023/07/11 11:43:05;;;;;;;1325.70;999.90;;;;;;;35.65;39.52;96413.13;2072451;28;20427;-60
2023/07/11 11:44:35;;;;;;;1116.03;999.90;;;;;;;35.58;39.60;96405.09;2072677;28;20442;-60
2023/07/11 11:45:42;;;;;;;1088.03;983.90;;;;;;;35.48;40.15;96405.66;2072273;28;20455;-60
2023/07/11 11:47:04;;;;;;;1053.23;960.03;;;;;;;35.79;38.96;96402.88;2071449;28;20431;-60
2023/07/11 11:48:28;;;;;;;1065.93;967.43;;;;;;;36.25;38.58;96397.66;2073294;28;20427;-60
2023/07/11 11:49:33;;;;;;;1234.63;999.90;;;;;;;36.48;38.91;96398.72;2074255;28;20443;-60
2023/07/11 11:50:39;;;;;;;1167.23;999.90;;;;;;;35.92;38.81;96397.25;2073006;28;20512;-60
2023/07/11 11:51:58;;;;;;;984.10;894.13;;;;;;;35.89;38.49;96397.69;2072197;28;20432;-60
2023/07/11 11:53:18;;;;;;;698.83;642.90;;;;;;;36.79;37.74;96400.19;2072357;28;20431;-60
2023/07/11 11:54:23;;;;;;;569.60;526.63;;;;;;;36.65;38.00;96398.81;2073069;28;20435;-60
2023/07/11 11:55:33;;;;;;;464.37;431.20;;;;;;;37.14;37.74;96399.25;2072219;28;20887;-60
2023/07/11 11:56:42;;;;;;;377.13;351.40;;;;;;;37.36;36.98;96396.66;2072147;28;20427;-61
2023/07/11 11:57:43;;;;;;;49.67;45.43;;;;;;;37.27;36.99;96389.94;2072758;28;20462;-60
2023/07/11 11:58:57;;;;;;;18.33;9.53;;;;;;;36.73;37.67;96393.81;2072875;28;20471;-60
2023/07/11 11:59:59;;;;;;;20.00;15.57;;;;;;;35.98;38.67;96387.31;2073378;28;20485;-60
2023/07/11 12:01:01;;;;;;;15.93;10.97;;;;;;;35.65;38.79;96385.97;2071150;28;20462;-60
2023/07/11 12:02:11;;;;;;;88.40;81.87;;;;;;;35.86;38.87;96383.72;2074288;28;20440;-61
2023/07/11 12:03:25;;;;;;;18.10;8.20;;;;;;;35.85;38.62;96380.19;2070944;28;20784;-60
2023/07/11 12:04:29;;;;;;;13.07;9.30;;;;;;;36.71;37.55;96379.63;2073436;28;21063;-61
2023/07/11 12:05:33;;;;;;;15.63;12.63;;;;;;;35.70;39.04;96377.94;2074389;28;20446;-60
2023/07/11 12:06:35;;;;;;;93.97;86.93;;;;;;;36.24;38.39;96385.16;2074716;28;20477;-60
2023/07/11 12:07:39;;;;;;;12.20;6.73;;;;;;;36.57;37.49;96384.53;2072515;28;20435;-60
2023/07/11 12:08:46;;;;;;;13.60;9.63;;;;;;;36.65;37.85;96380.59;2071843;28;20451;-61
2023/07/11 12:10:04;;;;;;;14.03;11.60;;;;;;;36.64;37.13;96376.22;2073105;28;20911;-60
2023/07/11 12:11:08;;;;;;;10.67;5.63;;;;;;;37.19;37.21;96390.31;2072396;28;20463;-60
2023/07/11 12:12:13;;;;;;;14.33;4.97;;;;;;;37.12;36.99;96385.06;2072918;28;20994;-60
2023/07/11 12:13:26;;;;;;;9.23;4.40;;;;;;;38.34;35.61;96379.09;2073357;28;20432;-60
2023/07/11 12:14:35;;;;;;;9.77;4.77;;;;;;;39.11;34.65;96386.53;2072686;28;20873;-60
2023/07/11 12:15:38;;;;;;;7.20;4.30;;;;;;;38.91;34.69;96377.09;2073841;28;20459;-60
2023/07/11 12:16:41;;;;;;;9.03;4.93;;;;;;;38.77;34.70;96384.00;2075506;28;20446;-60
2023/07/11 12:17:46;;;;;;;8.70;5.13;;;;;;;38.59;34.77;96375.06;2075144;28;20434;-60
2023/07/11 12:18:55;;;;;;;9.20;5.23;;;;;;;37.60;35.96;96382.06;2075059;28;20460;-60
2023/07/11 12:19:59;;;;;;;9.20;4.10;;;;;;;37.52;35.98;96367.81;2071773;28;20428;-60
2023/07/11 12:21:40;;;;;;;10.37;4.57;;;;;;;37.43;36.59;96366.53;2070999;28;20460;-60
2023/07/11 12:22:43;;;;;;;7.57;4.70;;;;;;;37.03;37.18;96364.75;2072034;28;21071;-60
2023/07/11 12:23:47;;;;;;;9.50;5.30;;;;;;;36.29;38.09;96352.66;2073208;28;20453;-60
2023/07/11 12:25:18;;;;;;;8.23;4.30;;;;;;;36.35;37.70;96353.59;2073708;28;20431;-60
2023/07/11 12:26:22;;;;;;;8.00;4.50;;;;;;;36.97;36.90;96363.81;2074466;28;20502;-61
2023/07/11 12:27:24;;;;;;;10.03;5.07;;;;;;;37.37;37.05;96364.81;2075549;28;20467;-60
2023/07/11 12:28:25;;;;;;;10.03;5.47;;;;;;;36.58;37.90;96364.44;2071880;28;21298;-60
2023/07/11 12:29:36;;;;;;;13.33;5.40;;;;;;;35.91;38.47;96360.28;2073431;28;20435;-60
2023/07/11 12:30:43;;;;;;;13.90;4.73;;;;;;;35.69;38.88;96357.28;2072265;28;20548;-60
2023/07/11 12:31:44;;;;;;;13.97;4.53;;;;;;;36.29;38.71;96355.38;2072414;28;20416;-61
2023/07/11 12:32:49;;;;;;;12.13;4.47;;;;;;;36.91;37.50;96357.47;2072413;28;20495;-60
2023/07/11 12:34:11;;;;;;;12.23;5.23;;;;;;;37.36;37.01;96355.84;2071222;28;20428;-60
2023/07/11 12:35:16;;;;;;;10.80;5.10;;;;;;;37.01;37.58;96343.22;2071168;28;21111;-60
2023/07/11 12:36:42;;;;;;;12.20;5.03;;;;;;;37.08;37.52;96340.38;2073672;28;20733;-60
2023/07/11 12:37:46;;;;;;;13.10;4.80;;;;;;;36.12;38.08;96341.72;2075408;28;20434;-60
2023/07/11 12:39:33;;;;;;;10.73;4.33;;;;;;;35.96;38.59;96341.38;2071633;28;20957;-60
2023/07/11 12:40:54;;;;;;;10.10;6.10;;;;;;;35.97;38.77;96342.19;2067912;28;20464;-60
2023/07/11 12:42:21;;;;;;;8.73;4.50;;;;;;;36.24;38.91;96337.09;2071905;28;20526;-61
2023/07/11 12:43:26;;;;;;;11.33;5.20;;;;;;;36.57;38.40;96337.47;2073483;28;20930;-60
2023/07/11 12:44:31;;;;;;;8.93;4.93;;;;;;;36.33;38.47;96332.09;2071919;28;20432;-60
2023/07/11 12:45:36;;;;;;;9.37;4.60;;;;;;;36.23;38.93;96338.16;2071107;28;20423;-60
2023/07/11 12:46:38;;;;;;;8.03;4.90;;;;;;;36.77;37.89;96337.88;2071508;28;20428;-60
2023/07/11 12:47:41;;;;;;;11.53;4.23;;;;;;;37.58;36.64;96338.75;2072584;28;20424;-60
2023/07/11 12:48:47;;;;;;;11.07;4.50;;;;;;;38.03;35.91;96337.81;2074999;28;21036;-60
2023/07/11 12:49:50;;;;;;;10.63;4.80;;;;;;;38.22;35.88;96334.75;2070592;28;20943;-60
2023/07/11 12:50:54;;;;;;;8.20;4.90;;;;;;;38.18;35.94;96336.34;2070657;28;20493;-60
2023/07/11 12:52:04;;;;;;;8.73;4.10;;;;;;;37.94;35.46;96338.47;2072337;28;20442;-60
2023/07/11 12:53:06;;;;;;;7.23;4.33;;;;;;;37.99;35.67;96333.09;2071387;28;20816;-61
2023/07/11 12:54:20;;;;;;;7.73;5.17;;;;;;;36.89;37.34;96320.72;2071738;28;20431;-60
2023/07/11 12:55:22;;;;;;;13.40;5.07;;;;;;;36.25;38.39;96318.88;2070743;28;20427;-60
2023/07/11 12:56:24;;;;;;;8.30;4.47;;;;;;;35.86;38.38;96322.16;2071578;28;20944;-60
2023/07/11 12:57:26;;;;;;;10.97;5.10;;;;;;;35.63;38.37;96315.63;2072535;28;20514;-60
2023/07/11 12:58:32;;;;;;;7.50;4.40;;;;;;;35.33;39.45;96304.84;2079655;28;20814;-60
2023/07/11 12:59:33;;;;;;;10.37;5.40;;;;;;;36.60;38.40;96310.63;2078011;28;20552;-60
2023/07/11 13:00:35;;;;;;;7.80;4.80;;;;;;;36.56;38.05;96311.38;2070426;28;20455;-61
2023/07/11 13:01:37;;;;;;;10.10;5.10;;;;;;;36.50;38.09;96305.00;2073007;28;20479;-60
2023/07/11 13:02:39;;;;;;;9.03;4.97;;;;;;;36.25;38.05;96306.13;2073866;28;20921;-60
2023/07/11 13:03:42;;;;;;;8.97;4.73;;;;;;;36.39;38.40;96303.16;2071330;28;20451;-60
2023/07/11 13:04:47;;;;;;;18.63;8.17;;;;;;;36.51;37.52;96295.78;2070877;28;20436;-61
2023/07/11 13:05:58;;;;;;;10.27;6.23;;;;;;;36.98;37.32;96302.09;2070794;28;21264;-61
2023/07/11 13:07:22;;;;;;;9.10;5.40;;;;;;;37.15;37.00;96297.47;2071393;28;20422;-61
2023/07/11 13:08:29;;;;;;;8.20;4.47;;;;;;;36.76;37.01;96290.00;2071767;28;20535;-60
2023/07/11 13:09:41;;;;;;;15.47;5.53;;;;;;;37.06;36.99;96290.81;2070519;28;20455;-61
2023/07/11 13:10:49;;;;;;;9.37;4.77;;;;;;;36.77;37.05;96288.09;2071696;28;20460;-62
2023/07/11 13:11:52;;;;;;;6.43;4.00;;;;;;;36.88;37.22;96283.72;2071976;28;20663;-62
2023/07/11 13:12:54;;;;;;;9.37;4.60;;;;;;;37.63;36.64;96284.38;2071546;28;20494;-61
2023/07/11 13:13:57;;;;;;;13.03;4.63;;;;;;;37.73;36.54;96286.41;2073349;28;20434;-62
2023/07/11 13:15:10;;;;;;;8.57;4.00;;;;;;;37.32;36.88;96285.78;2073353;28;20466;-61
2023/07/11 13:16:12;;;;;;;6.27;4.50;;;;;;;36.84;37.38;96286.09;2070012;28;20521;-62
2023/07/11 13:17:24;;;;;;;10.37;4.37;;;;;;;36.31;37.75;96284.50;2071424;28;20440;-62
2023/07/11 13:18:26;;;;;;;11.47;5.37;;;;;;;36.19;37.67;96273.66;2073115;28;20434;-61
2023/07/11 13:19:27;;;;;;;13.17;5.13;;;;;;;36.57;37.32;96275.78;2074147;28;20463;-61
2023/07/11 13:20:35;;;;;;;11.43;5.43;;;;;;;36.93;37.42;96270.19;2073735;28;20480;-62
2023/07/11 13:21:37;;;;;;;9.67;5.03;;;;;;;37.60;36.08;96275.88;2071684;28;20459;-61